sensor_id;sensor_type;location;lat;lon;timestamp;pressure;altitude;pressure_sealevel;temperature;humidity
59367;BME280;45163;47.690;11.770;2023-01-24T00:00:11;94335.75;;;-3.33;100.00
59367;BME280;45163;47.690;11.770;2023-01-24T00:02:37;94331.69;;;-3.39;100.00
59367;BME280;45163;47.690;11.770;2023-01-24T00:05:04;94333.28;;;-3.47;100.00
59367;BME280;45163;47.690;11.770;2023-01-24T00:07:30;94333.81;;;-3.54;100.00
59367;BME280;45163;47.690;11.770;2023-01-24T00:09:56;94331.00;;;-3.57;100.00
59367;BME280;45163;47.690;11.770;2023-01-24T00:12:22;94328.81;;;-3.64;100.00
59367;BME280;45163;47.690;11.770;2023-01-24T00:14:48;94328.81;;;-3.64;100.00
59367;BME280;45163;47.690;11.770;2023-01-24T00:17:14;94333.06;;;-3.63;100.00
59367;BME280;45163;47.690;11.770;2023-01-24T00:19:40;94325.84;;;-3.62;100.00
59367;BME280;45163;47.690;11.770;2023-01-24T00:22:06;94328.16;;;-3.61;100.00
59367;BME280;45163;47.690;11.770;2023-01-24T00:24:33;94332.41;;;-3.60;100.00
59367;BME280;45163;47.690;11.770;2023-01-24T00:27:01;94325.84;;;-3.62;100.00
59367;BME280;45163;47.690;11.770;2023-01-24T00:29:27;94336.03;;;-3.64;100.00
59367;BME280;45163;47.690;11.770;2023-01-24T00:31:53;94329.75;;;-3.68;100.00
59367;BME280;45163;47.690;11.770;2023-01-24T00:34:19;94331.66;;;-3.69;100.00
59367;BME280;45163;47.690;11.770;2023-01-24T00:36:45;94332.47;;;-3.77;100.00
59367;BME280;45163;47.690;11.770;2023-01-24T00:39:11;94334.69;;;-3.79;100.00
59367;BME280;45163;47.690;11.770;2023-01-24T00:41:37;94334.84;;;-3.84;100.00
59367;BME280;45163;47.690;11.770;2023-01-24T00:44:03;94351.78;;;-3.89;100.00
59367;BME280;45163;47.690;11.770;2023-01-24T00:46:29;94347.09;;;-3.92;100.00
59367;BME280;45163;47.690;11.770;2023-01-24T00:48:55;94343.69;;;-4.01;100.00
59367;BME280;45163;47.690;11.770;2023-01-24T00:51:21;94350.59;;;-4.09;100.00
59367;BME280;45163;47.690;11.770;2023-01-24T00:53:47;94356.53;;;-4.12;100.00
59367;BME280;45163;47.690;11.770;2023-01-24T00:56:13;94357.66;;;-4.13;100.00
59367;BME280;45163;47.690;11.770;2023-01-24T00:58:39;94359.38;;;-4.17;100.00
59367;BME280;45163;47.690;11.770;2023-01-24T01:01:05;94352.47;;;-4.27;100.00
59367;BME280;45163;47.690;11.770;2023-01-24T01:03:32;94357.97;;;-4.32;100.00
59367;BME280;45163;47.690;11.770;2023-01-24T01:06:04;94355.63;;;-4.33;100.00
59367;BME280;45163;47.690;11.770;2023-01-24T01:08:31;94365.66;;;-4.30;100.00
59367;BME280;45163;47.690;11.770;2023-01-24T01:10:57;94361.13;;;-4.38;100.00
59367;BME280;45163;47.690;11.770;2023-01-24T01:13:24;94368.16;;;-4.42;100.00
59367;BME280;45163;47.690;11.770;2023-01-24T01:15:51;94370.34;;;-4.53;100.00
59367;BME280;45163;47.690;11.770;2023-01-24T01:18:17;94370.19;;;-4.57;100.00
59367;BME280;45163;47.690;11.770;2023-01-24T01:20:49;94366.13;;;-4.63;100.00
59367;BME280;45163;47.690;11.770;2023-01-24T01:23:16;94364.06;;;-4.66;100.00
59367;BME280;45163;47.690;11.770;2023-01-24T01:25:42;94361.56;;;-4.71;100.00
59367;BME280;45163;47.690;11.770;2023-01-24T01:28:08;94364.69;;;-4.69;100.00
59367;BME280;45163;47.690;11.770;2023-01-24T01:30:34;94360.81;;;-4.63;100.00
59367;BME280;45163;47.690;11.770;2023-01-24T01:33:00;94366.59;;;-4.61;100.00
59367;BME280;45163;47.690;11.770;2023-01-24T01:35:26;94363.47;;;-4.63;100.00
59367;BME280;45163;47.690;11.770;2023-01-24T01:37:52;94363.47;;;-4.71;100.00
59367;BME280;45163;47.690;11.770;2023-01-24T01:40:18;94364.53;;;-4.72;100.00
59367;BME280;45163;47.690;11.770;2023-01-24T01:42:54;94370.19;;;-4.74;100.00
59367;BME280;45163;47.690;11.770;2023-01-24T01:53:50;94380.66;;;-4.86;100.00
59367;BME280;45163;47.690;11.770;2023-01-24T01:56:25;94378.31;;;-4.88;100.00
59367;BME280;45163;47.690;11.770;2023-01-24T01:58:55;94373.59;;;-4.91;100.00
59367;BME280;45163;47.690;11.770;2023-01-24T02:01:22;94364.84;;;-4.91;100.00
59367;BME280;45163;47.690;11.770;2023-01-24T02:03:55;94369.81;;;-4.98;100.00
59367;BME280;45163;47.690;11.770;2023-01-24T02:09:38;94371.50;;;-5.11;100.00
59367;BME280;45163;47.690;11.770;2023-01-24T02:12:10;94362.41;;;-5.19;100.00
59367;BME280;45163;47.690;11.770;2023-01-24T02:14:37;94366.31;;;-5.25;100.00
59367;BME280;45163;47.690;11.770;2023-01-24T02:17:22;94360.22;;;-5.26;100.00
59367;BME280;45163;47.690;11.770;2023-01-24T02:28:05;94375.31;;;-5.43;100.00
59367;BME280;45163;47.690;11.770;2023-01-24T02:30:32;94371.56;;;-5.51;100.00
59367;BME280;45163;47.690;11.770;2023-01-24T02:32:58;94368.72;;;-5.55;100.00
59367;BME280;45163;47.690;11.770;2023-01-24T02:35:30;94364.50;;;-5.56;100.00
59367;BME280;45163;47.690;11.770;2023-01-24T02:37:58;94362.63;;;-5.55;100.00
59367;BME280;45163;47.690;11.770;2023-01-24T02:40:27;94366.53;;;-5.53;100.00
59367;BME280;45163;47.690;11.770;2023-01-24T02:42:56;94372.00;;;-5.49;100.00
59367;BME280;45163;47.690;11.770;2023-01-24T02:45:27;94370.13;;;-5.48;100.00
59367;BME280;45163;47.690;11.770;2023-01-24T02:47:54;94373.44;;;-5.52;100.00
59367;BME280;45163;47.690;11.770;2023-01-24T02:50:23;94365.09;;;-5.59;100.00
59367;BME280;45163;47.690;11.770;2023-01-24T02:52:50;94371.16;;;-5.67;100.00
59367;BME280;45163;47.690;11.770;2023-01-24T02:55:35;94364.44;;;-5.64;100.00
59367;BME280;45163;47.690;11.770;2023-01-24T02:58:25;94362.41;;;-5.67;100.00
59367;BME280;45163;47.690;11.770;2023-01-24T03:00:51;94358.97;;;-5.68;100.00
59367;BME280;45163;47.690;11.770;2023-01-24T03:03:17;94364.09;;;-5.71;100.00
59367;BME280;45163;47.690;11.770;2023-01-24T03:05:43;94362.19;;;-5.80;100.00
59367;BME280;45163;47.690;11.770;2023-01-24T03:08:27;94367.94;;;-5.86;100.00
59367;BME280;45163;47.690;11.770;2023-01-24T03:10:55;94377.16;;;-5.92;100.00
59367;BME280;45163;47.690;11.770;2023-01-24T03:13:22;94378.84;;;-5.96;100.00
59367;BME280;45163;47.690;11.770;2023-01-24T03:16:07;94382.91;;;-5.99;100.00
59367;BME280;45163;47.690;11.770;2023-01-24T03:18:52;94386.66;;;-6.00;100.00
59367;BME280;45163;47.690;11.770;2023-01-24T03:21:37;94384.00;;;-6.00;100.00
59367;BME280;45163;47.690;11.770;2023-01-24T03:24:23;94389.31;;;-6.00;100.00
59367;BME280;45163;47.690;11.770;2023-01-24T03:27:08;94386.91;;;-6.10;100.00
59367;BME280;45163;47.690;11.770;2023-01-24T03:29:52;94389.84;;;-6.12;100.00
59367;BME280;45163;47.690;11.770;2023-01-24T03:32:37;94389.56;;;-6.10;100.00
59367;BME280;45163;47.690;11.770;2023-01-24T03:35:21;94394.38;;;-6.12;100.00
59367;BME280;45163;47.690;11.770;2023-01-24T03:37:47;94393.34;;;-6.03;100.00
59367;BME280;45163;47.690;11.770;2023-01-24T03:40:32;94394.81;;;-5.96;100.00
59367;BME280;45163;47.690;11.770;2023-01-24T03:43:00;94401.88;;;-5.92;100.00
59367;BME280;45163;47.690;11.770;2023-01-24T03:45:28;94396.69;;;-5.97;100.00
59367;BME280;45163;47.690;11.770;2023-01-24T03:47:58;94389.44;;;-6.05;100.00
59367;BME280;45163;47.690;11.770;2023-01-24T03:50:27;94389.38;;;-6.14;100.00
59367;BME280;45163;47.690;11.770;2023-01-24T03:53:12;94374.34;;;-6.18;100.00
59367;BME280;45163;47.690;11.770;2023-01-24T03:55:38;94380.44;;;-6.18;100.00
59367;BME280;45163;47.690;11.770;2023-01-24T03:58:05;94382.91;;;-6.21;100.00
59367;BME280;45163;47.690;11.770;2023-01-24T04:00:32;94382.31;;;-6.18;100.00
59367;BME280;45163;47.690;11.770;2023-01-24T04:02:58;94389.78;;;-6.20;100.00
59367;BME280;45163;47.690;11.770;2023-01-24T04:05:25;94389.31;;;-6.22;100.00
59367;BME280;45163;47.690;11.770;2023-01-24T04:07:52;94397.22;;;-6.31;100.00
59367;BME280;45163;47.690;11.770;2023-01-24T04:10:19;94388.72;;;-6.42;100.00
59367;BME280;45163;47.690;11.770;2023-01-24T04:12:45;94393.53;;;-6.44;100.00
59367;BME280;45163;47.690;11.770;2023-01-24T04:15:30;94389.31;;;-6.45;100.00
59367;BME280;45163;47.690;11.770;2023-01-24T04:18:02;94386.75;;;-6.50;100.00
59367;BME280;45163;47.690;11.770;2023-01-24T04:20:30;94387.56;;;-6.49;100.00
59367;BME280;45163;47.690;11.770;2023-01-24T04:22:56;94387.59;;;-6.63;100.00
59367;BME280;45163;47.690;11.770;2023-01-24T04:25:25;94387.41;;;-6.67;100.00
59367;BME280;45163;47.690;11.770;2023-01-24T04:27:51;94399.72;;;-6.71;100.00
59367;BME280;45163;47.690;11.770;2023-01-24T04:30:17;94400.59;;;-6.75;100.00
59367;BME280;45163;47.690;11.770;2023-01-24T04:32:43;94402.41;;;-6.85;100.00
59367;BME280;45163;47.690;11.770;2023-01-24T04:35:15;94400.81;;;-6.86;100.00
59367;BME280;45163;47.690;11.770;2023-01-24T04:37:41;94397.78;;;-6.93;100.00
59367;BME280;45163;47.690;11.770;2023-01-24T04:40:08;94400.25;;;-6.96;100.00
59367;BME280;45163;47.690;11.770;2023-01-24T04:42:34;94400.56;;;-6.98;100.00
59367;BME280;45163;47.690;11.770;2023-01-24T04:45:00;94397.41;;;-7.00;100.00
59367;BME280;45163;47.690;11.770;2023-01-24T04:47:26;94407.34;;;-7.06;100.00
59367;BME280;45163;47.690;11.770;2023-01-24T04:49:52;94423.75;;;-7.17;100.00
59367;BME280;45163;47.690;11.770;2023-01-24T04:52:18;94423.44;;;-7.16;100.00
59367;BME280;45163;47.690;11.770;2023-01-24T04:54:44;94422.78;;;-7.21;100.00
59367;BME280;45163;47.690;11.770;2023-01-24T04:57:11;94416.69;;;-7.22;100.00
59367;BME280;45163;47.690;11.770;2023-01-24T04:59:37;94427.41;;;-7.27;100.00
59367;BME280;45163;47.690;11.770;2023-01-24T05:02:03;94417.38;;;-7.30;100.00
59367;BME280;45163;47.690;11.770;2023-01-24T05:04:30;94418.94;;;-7.29;100.00
59367;BME280;45163;47.690;11.770;2023-01-24T05:06:56;94426.00;;;-7.38;100.00
59367;BME280;45163;47.690;11.770;2023-01-24T05:09:22;94420.50;;;-7.42;100.00
59367;BME280;45163;47.690;11.770;2023-01-24T05:11:48;94427.78;;;-7.47;100.00
59367;BME280;45163;47.690;11.770;2023-01-24T05:14:14;94429.13;;;-7.50;100.00
59367;BME280;45163;47.690;11.770;2023-01-24T05:16:40;94420.09;;;-7.49;100.00
59367;BME280;45163;47.690;11.770;2023-01-24T05:19:06;94422.75;;;-7.49;100.00
59367;BME280;45163;47.690;11.770;2023-01-24T05:21:32;94426.69;;;-7.46;100.00
59367;BME280;45163;47.690;11.770;2023-01-24T05:23:58;94420.97;;;-7.40;100.00
59367;BME280;45163;47.690;11.770;2023-01-24T05:26:25;94426.69;;;-7.46;100.00
59367;BME280;45163;47.690;11.770;2023-01-24T05:28:52;94422.97;;;-7.45;100.00
59367;BME280;45163;47.690;11.770;2023-01-24T05:31:19;94426.78;;;-7.38;100.00
59367;BME280;45163;47.690;11.770;2023-01-24T05:33:45;94426.22;;;-7.21;100.00
59367;BME280;45163;47.690;11.770;2023-01-24T05:36:14;94427.97;;;-7.16;100.00
59367;BME280;45163;47.690;11.770;2023-01-24T05:38:41;94437.22;;;-7.14;100.00
59367;BME280;45163;47.690;11.770;2023-01-24T05:41:09;94436.91;;;-7.40;100.00
59367;BME280;45163;47.690;11.770;2023-01-24T05:43:36;94443.06;;;-7.58;100.00
59367;BME280;45163;47.690;11.770;2023-01-24T05:46:05;94435.38;;;-7.73;100.00
59367;BME280;45163;47.690;11.770;2023-01-24T05:48:32;94439.56;;;-7.86;100.00
59367;BME280;45163;47.690;11.770;2023-01-24T05:50:58;94444.19;;;-7.92;100.00
59367;BME280;45163;47.690;11.770;2023-01-24T05:53:26;94448.28;;;-7.99;100.00
59367;BME280;45163;47.690;11.770;2023-01-24T05:56:05;94449.72;;;-8.07;100.00
59367;BME280;45163;47.690;11.770;2023-01-24T05:58:34;94462.31;;;-7.99;100.00
59367;BME280;45163;47.690;11.770;2023-01-24T06:01:01;94461.94;;;-7.92;100.00
59367;BME280;45163;47.690;11.770;2023-01-24T06:03:27;94461.84;;;-7.87;100.00
59367;BME280;45163;47.690;11.770;2023-01-24T06:05:54;94461.09;;;-7.74;100.00
59367;BME280;45163;47.690;11.770;2023-01-24T06:08:21;94467.13;;;-7.68;100.00
59367;BME280;45163;47.690;11.770;2023-01-24T06:10:47;94473.78;;;-7.71;100.00
59367;BME280;45163;47.690;11.770;2023-01-24T06:13:14;94473.19;;;-7.68;100.00
59367;BME280;45163;47.690;11.770;2023-01-24T06:15:40;94477.22;;;-7.70;100.00
59367;BME280;45163;47.690;11.770;2023-01-24T06:18:08;94489.69;;;-7.71;100.00
59367;BME280;45163;47.690;11.770;2023-01-24T06:20:36;94486.03;;;-7.75;100.00
59367;BME280;45163;47.690;11.770;2023-01-24T06:23:05;94485.81;;;-7.79;100.00
59367;BME280;45163;47.690;11.770;2023-01-24T06:25:32;94492.50;;;-7.81;100.00
59367;BME280;45163;47.690;11.770;2023-01-24T06:27:59;94492.69;;;-7.78;100.00
59367;BME280;45163;47.690;11.770;2023-01-24T06:30:25;94490.75;;;-7.72;100.00
59367;BME280;45163;47.690;11.770;2023-01-24T06:36:18;94492.13;;;-7.74;100.00
59367;BME280;45163;47.690;11.770;2023-01-24T06:38:46;94491.16;;;-7.97;100.00
59367;BME280;45163;47.690;11.770;2023-01-24T06:41:16;94500.63;;;-8.10;100.00
59367;BME280;45163;47.690;11.770;2023-01-24T06:43:44;94497.91;;;-8.24;100.00
59367;BME280;45163;47.690;11.770;2023-01-24T06:46:11;94484.75;;;-8.29;100.00
59367;BME280;45163;47.690;11.770;2023-01-24T06:48:37;94496.41;;;-8.30;100.00
59367;BME280;45163;47.690;11.770;2023-01-24T06:51:04;94489.25;;;-8.30;100.00
59367;BME280;45163;47.690;11.770;2023-01-24T06:53:33;94494.47;;;-8.24;100.00
59367;BME280;45163;47.690;11.770;2023-01-24T06:55:59;94494.13;;;-8.18;100.00
59367;BME280;45163;47.690;11.770;2023-01-24T06:58:25;94497.38;;;-8.07;100.00
59367;BME280;45163;47.690;11.770;2023-01-24T07:00:52;94503.34;;;-7.96;100.00
59367;BME280;45163;47.690;11.770;2023-01-24T07:03:19;94504.03;;;-7.91;100.00
59367;BME280;45163;47.690;11.770;2023-01-24T07:05:45;94502.91;;;-7.85;100.00
59367;BME280;45163;47.690;11.770;2023-01-24T07:08:11;94508.59;;;-7.78;100.00
59367;BME280;45163;47.690;11.770;2023-01-24T07:10:37;94499.41;;;-7.66;100.00
59367;BME280;45163;47.690;11.770;2023-01-24T07:13:04;94509.66;;;-7.60;100.00
59367;BME280;45163;47.690;11.770;2023-01-24T07:15:30;94508.47;;;-7.54;100.00
59367;BME280;45163;47.690;11.770;2023-01-24T07:17:56;94512.91;;;-7.49;100.00
59367;BME280;45163;47.690;11.770;2023-01-24T07:20:29;94509.13;;;-7.62;100.00
59367;BME280;45163;47.690;11.770;2023-01-24T07:22:55;94507.66;;;-7.68;100.00
59367;BME280;45163;47.690;11.770;2023-01-24T07:25:22;94502.63;;;-7.69;100.00
59367;BME280;45163;47.690;11.770;2023-01-24T07:27:49;94504.72;;;-7.66;100.00
59367;BME280;45163;47.690;11.770;2023-01-24T07:30:15;94508.34;;;-7.62;100.00
59367;BME280;45163;47.690;11.770;2023-01-24T07:32:41;94505.91;;;-7.59;100.00
59367;BME280;45163;47.690;11.770;2023-01-24T07:35:07;94509.75;;;-7.51;100.00
59367;BME280;45163;47.690;11.770;2023-01-24T07:37:34;94507.53;;;-7.44;100.00
59367;BME280;45163;47.690;11.770;2023-01-24T07:40:00;94516.84;;;-7.33;100.00
59367;BME280;45163;47.690;11.770;2023-01-24T07:42:26;94519.56;;;-7.19;100.00
59367;BME280;45163;47.690;11.770;2023-01-24T07:44:52;94522.50;;;-7.07;100.00
59367;BME280;45163;47.690;11.770;2023-01-24T07:47:20;94528.78;;;-7.16;100.00
59367;BME280;45163;47.690;11.770;2023-01-24T07:49:46;94524.56;;;-7.17;100.00
59367;BME280;45163;47.690;11.770;2023-01-24T07:52:12;94531.31;;;-7.11;100.00
59367;BME280;45163;47.690;11.770;2023-01-24T07:54:38;94532.25;;;-7.02;100.00
59367;BME280;45163;47.690;11.770;2023-01-24T07:57:04;94529.41;;;-6.92;100.00
59367;BME280;45163;47.690;11.770;2023-01-24T07:59:30;94529.19;;;-6.82;100.00
59367;BME280;45163;47.690;11.770;2023-01-24T08:01:55;94531.66;;;-6.71;100.00
59367;BME280;45163;47.690;11.770;2023-01-24T08:04:21;94534.81;;;-6.56;100.00
59367;BME280;45163;47.690;11.770;2023-01-24T08:06:47;94528.00;;;-6.34;100.00
59367;BME280;45163;47.690;11.770;2023-01-24T08:09:33;94536.03;;;-6.25;100.00
59367;BME280;45163;47.690;11.770;2023-01-24T08:11:59;94543.78;;;-6.15;100.00
59367;BME280;45163;47.690;11.770;2023-01-24T08:14:25;94542.09;;;-6.11;100.00
59367;BME280;45163;47.690;11.770;2023-01-24T08:16:51;94544.06;;;-6.03;100.00
59367;BME280;45163;47.690;11.770;2023-01-24T08:19:17;94543.50;;;-5.91;100.00
59367;BME280;45163;47.690;11.770;2023-01-24T08:21:43;94538.19;;;-5.91;100.00
59367;BME280;45163;47.690;11.770;2023-01-24T08:24:09;94546.13;;;-6.00;100.00
59367;BME280;45163;47.690;11.770;2023-01-24T08:26:35;94546.78;;;-5.72;100.00
59367;BME280;45163;47.690;11.770;2023-01-24T08:29:01;94554.88;;;-5.77;100.00
59367;BME280;45163;47.690;11.770;2023-01-24T08:31:27;94545.13;;;-5.82;100.00
59367;BME280;45163;47.690;11.770;2023-01-24T08:33:53;94543.06;;;-5.93;100.00
59367;BME280;45163;47.690;11.770;2023-01-24T08:36:19;94548.47;;;-5.98;100.00
59367;BME280;45163;47.690;11.770;2023-01-24T08:38:45;94546.91;;;-5.99;100.00
59367;BME280;45163;47.690;11.770;2023-01-24T08:41:11;94546.91;;;-5.99;100.00
59367;BME280;45163;47.690;11.770;2023-01-24T08:43:37;94552.13;;;-6.08;100.00
59367;BME280;45163;47.690;11.770;2023-01-24T08:46:04;94555.47;;;-6.03;100.00
59367;BME280;45163;47.690;11.770;2023-01-24T08:48:30;94559.09;;;-5.98;100.00
59367;BME280;45163;47.690;11.770;2023-01-24T08:50:56;94559.28;;;-5.95;100.00
59367;BME280;45163;47.690;11.770;2023-01-24T08:53:22;94567.69;;;-6.15;100.00
59367;BME280;45163;47.690;11.770;2023-01-24T08:55:49;94564.34;;;-6.07;100.00
59367;BME280;45163;47.690;11.770;2023-01-24T08:58:15;94560.19;;;-5.99;100.00
59367;BME280;45163;47.690;11.770;2023-01-24T09:00:42;94564.19;;;-5.88;100.00
59367;BME280;45163;47.690;11.770;2023-01-24T09:03:11;94554.00;;;-5.72;100.00
59367;BME280;45163;47.690;11.770;2023-01-24T09:05:38;94560.38;;;-5.29;100.00
59367;BME280;45163;47.690;11.770;2023-01-24T09:08:04;94556.84;;;-4.53;100.00
59367;BME280;45163;47.690;11.770;2023-01-24T09:10:31;94560.13;;;-3.90;100.00
59367;BME280;45163;47.690;11.770;2023-01-24T09:12:57;94561.22;;;-3.22;100.00
59367;BME280;45163;47.690;11.770;2023-01-24T09:15:23;94566.16;;;-2.01;100.00
59367;BME280;45163;47.690;11.770;2023-01-24T09:17:49;94556.19;;;-0.95;100.00
59367;BME280;45163;47.690;11.770;2023-01-24T09:20:15;94555.28;;;0.19;100.00
59367;BME280;45163;47.690;11.770;2023-01-24T09:22:42;94545.19;;;1.25;100.00
59367;BME280;45163;47.690;11.770;2023-01-24T09:25:08;94541.75;;;1.56;100.00
59367;BME280;45163;47.690;11.770;2023-01-24T09:27:35;94533.84;;;1.95;100.00
59367;BME280;45163;47.690;11.770;2023-01-24T09:30:02;94544.44;;;1.40;100.00
59367;BME280;45163;47.690;11.770;2023-01-24T09:32:28;94538.81;;;1.77;100.00
59367;BME280;45163;47.690;11.770;2023-01-24T09:34:57;94535.34;;;2.82;100.00
59367;BME280;45163;47.690;11.770;2023-01-24T09:37:23;94537.16;;;3.17;100.00
59367;BME280;45163;47.690;11.770;2023-01-24T09:39:49;94537.28;;;3.43;100.00
59367;BME280;45163;47.690;11.770;2023-01-24T09:47:40;94534.94;;;2.80;100.00
59367;BME280;45163;47.690;11.770;2023-01-24T09:50:23;94536.03;;;1.58;100.00
59367;BME280;45163;47.690;11.770;2023-01-24T09:52:57;94537.91;;;1.41;100.00
59367;BME280;45163;47.690;11.770;2023-01-24T10:00:29;94540.72;;;4.13;100.00
59367;BME280;45163;47.690;11.770;2023-01-24T10:02:58;94538.34;;;4.34;100.00
59367;BME280;45163;47.690;11.770;2023-01-24T10:05:49;94529.78;;;4.89;100.00
59367;BME280;45163;47.690;11.770;2023-01-24T10:16:20;94530.81;;;6.33;100.00
59367;BME280;45163;47.690;11.770;2023-01-24T10:23:56;94532.78;;;9.31;100.00
59367;BME280;45163;47.690;11.770;2023-01-24T10:26:35;94515.22;;;9.42;90.85
59367;BME280;45163;47.690;11.770;2023-01-24T10:29:31;94513.09;;;8.87;92.44
59367;BME280;45163;47.690;11.770;2023-01-24T10:32:05;94511.19;;;9.61;90.68
59367;BME280;45163;47.690;11.770;2023-01-24T10:34:40;94510.63;;;9.25;87.36
59367;BME280;45163;47.690;11.770;2023-01-24T10:37:15;94505.00;;;8.59;88.01
59367;BME280;45163;47.690;11.770;2023-01-24T10:39:45;94499.56;;;8.27;88.63
59367;BME280;45163;47.690;11.770;2023-01-24T10:42:28;94506.56;;;7.81;88.36
59367;BME280;45163;47.690;11.770;2023-01-24T10:45:00;94501.31;;;9.15;92.37
59367;BME280;45163;47.690;11.770;2023-01-24T10:47:49;94498.13;;;10.87;89.71
59367;BME280;45163;47.690;11.770;2023-01-24T10:50:17;94495.94;;;12.21;87.74
59367;BME280;45163;47.690;11.770;2023-01-24T10:52:44;94492.44;;;12.67;78.48
59367;BME280;45163;47.690;11.770;2023-01-24T10:55:34;94493.84;;;12.76;76.92
59367;BME280;45163;47.690;11.770;2023-01-24T10:58:19;94493.19;;;13.51;69.09
59367;BME280;45163;47.690;11.770;2023-01-24T11:00:46;94486.53;;;13.68;64.50
59367;BME280;45163;47.690;11.770;2023-01-24T11:03:22;94491.13;;;14.40;67.16
59367;BME280;45163;47.690;11.770;2023-01-24T11:05:54;94482.41;;;14.13;64.62
59367;BME280;45163;47.690;11.770;2023-01-24T11:10:55;94468.28;;;13.94;57.56
59367;BME280;45163;47.690;11.770;2023-01-24T11:13:34;94467.94;;;13.76;60.25
59367;BME280;45163;47.690;11.770;2023-01-24T11:16:03;94463.75;;;13.88;61.38
59367;BME280;45163;47.690;11.770;2023-01-24T11:18:31;94475.38;;;13.59;64.59
59367;BME280;45163;47.690;11.770;2023-01-24T11:21:08;94464.75;;;13.78;60.42
59367;BME280;45163;47.690;11.770;2023-01-24T11:23:35;94467.75;;;13.83;60.60
59367;BME280;45163;47.690;11.770;2023-01-24T11:26:04;94463.63;;;12.59;59.09
59367;BME280;45163;47.690;11.770;2023-01-24T11:28:37;94462.59;;;11.48;65.43
59367;BME280;45163;47.690;11.770;2023-01-24T11:31:27;94463.91;;;10.76;72.22
59367;BME280;45163;47.690;11.770;2023-01-24T11:34:07;94467.00;;;9.32;78.80
59367;BME280;45163;47.690;11.770;2023-01-24T11:51:09;94456.66;;;11.84;73.27
59367;BME280;45163;47.690;11.770;2023-01-24T12:02:20;94460.34;;;13.28;75.73
59367;BME280;45163;47.690;11.770;2023-01-24T12:21:07;94445.75;;;14.52;54.60
59367;BME280;45163;47.690;11.770;2023-01-24T12:26:30;94442.59;;;14.66;50.02
59367;BME280;45163;47.690;11.770;2023-01-24T12:29:01;94434.31;;;14.37;56.21
59367;BME280;45163;47.690;11.770;2023-01-24T12:37:03;94433.00;;;13.24;61.41
59367;BME280;45163;47.690;11.770;2023-01-24T12:42:44;94432.56;;;12.46;64.58
59367;BME280;45163;47.690;11.770;2023-01-24T12:45:18;94434.81;;;11.54;74.53
59367;BME280;45163;47.690;11.770;2023-01-24T12:48:28;94436.09;;;11.45;80.21
59367;BME280;45163;47.690;11.770;2023-01-24T12:53:41;94429.88;;;10.50;74.62
59367;BME280;45163;47.690;11.770;2023-01-24T12:57:17;94436.19;;;9.94;79.94
59367;BME280;45163;47.690;11.770;2023-01-24T12:59:10;94428.16;;;9.17;84.91
59367;BME280;45163;47.690;11.770;2023-01-24T13:12:35;94431.94;;;8.54;91.37
59367;BME280;45163;47.690;11.770;2023-01-24T13:15:13;94426.75;;;8.91;96.71
59367;BME280;45163;47.690;11.770;2023-01-24T13:18:21;94424.56;;;8.40;99.04
59367;BME280;45163;47.690;11.770;2023-01-24T13:29:40;94418.44;;;7.46;100.00
59367;BME280;45163;47.690;11.770;2023-01-24T13:32:15;94417.59;;;7.03;100.00
59367;BME280;45163;47.690;11.770;2023-01-24T13:34:54;94408.72;;;7.24;100.00
59367;BME280;45163;47.690;11.770;2023-01-24T13:39:59;94412.97;;;7.25;100.00
59367;BME280;45163;47.690;11.770;2023-01-24T13:42:37;94405.94;;;6.92;100.00
59367;BME280;45163;47.690;11.770;2023-01-24T13:47:49;94417.16;;;6.03;100.00
59367;BME280;45163;47.690;11.770;2023-01-24T13:50:17;94413.91;;;5.32;100.00
59367;BME280;45163;47.690;11.770;2023-01-24T13:52:45;94423.34;;;5.08;100.00
59367;BME280;45163;47.690;11.770;2023-01-24T14:00:48;94423.47;;;4.51;100.00
59367;BME280;45163;47.690;11.770;2023-01-24T14:03:24;94422.72;;;4.20;100.00
59367;BME280;45163;47.690;11.770;2023-01-24T14:06:04;94434.75;;;3.70;100.00
59367;BME280;45163;47.690;11.770;2023-01-24T14:08:34;94428.25;;;3.74;100.00
59367;BME280;45163;47.690;11.770;2023-01-24T14:13:55;94426.13;;;3.38;100.00
59367;BME280;45163;47.690;11.770;2023-01-24T14:21:47;94427.72;;;2.93;100.00
59367;BME280;45163;47.690;11.770;2023-01-24T14:26:50;94437.59;;;2.27;100.00
59367;BME280;45163;47.690;11.770;2023-01-24T14:29:17;94439.78;;;2.21;100.00
59367;BME280;45163;47.690;11.770;2023-01-24T14:31:46;94436.91;;;1.95;100.00
59367;BME280;45163;47.690;11.770;2023-01-24T14:34:28;94438.72;;;2.07;100.00
59367;BME280;45163;47.690;11.770;2023-01-24T14:37:11;94439.19;;;1.93;100.00
59367;BME280;45163;47.690;11.770;2023-01-24T14:39:38;94450.06;;;1.81;100.00
59367;BME280;45163;47.690;11.770;2023-01-24T14:42:06;94452.09;;;1.68;100.00
59367;BME280;45163;47.690;11.770;2023-01-24T14:44:38;94454.63;;;1.61;100.00
59367;BME280;45163;47.690;11.770;2023-01-24T14:49:47;94461.50;;;1.27;100.00
59367;BME280;45163;47.690;11.770;2023-01-24T14:52:23;94465.13;;;1.18;100.00
59367;BME280;45163;47.690;11.770;2023-01-24T14:54:52;94469.78;;;1.06;100.00
59367;BME280;45163;47.690;11.770;2023-01-24T14:57:27;94469.31;;;0.88;100.00
59367;BME280;45163;47.690;11.770;2023-01-24T15:02:28;94474.09;;;0.94;100.00
59367;BME280;45163;47.690;11.770;2023-01-24T15:04:54;94479.06;;;0.92;100.00
59367;BME280;45163;47.690;11.770;2023-01-24T15:07:20;94484.13;;;0.82;100.00
59367;BME280;45163;47.690;11.770;2023-01-24T15:09:48;94487.56;;;0.66;100.00
59367;BME280;45163;47.690;11.770;2023-01-24T15:12:25;94490.59;;;0.65;100.00
59367;BME280;45163;47.690;11.770;2023-01-24T15:14:54;94487.47;;;0.63;100.00
59367;BME280;45163;47.690;11.770;2023-01-24T15:17:29;94496.09;;;0.28;100.00
59367;BME280;45163;47.690;11.770;2023-01-24T15:20:06;94497.06;;;0.36;100.00
59367;BME280;45163;47.690;11.770;2023-01-24T15:22:36;94505.47;;;0.34;100.00
59367;BME280;45163;47.690;11.770;2023-01-24T15:25:14;94516.00;;;0.27;100.00